Aérodrome :
LOGIN :

S'inscrire | Disclaimer

   EN    FR    IT 

 










Légende :    VFR   VFR Marginal   IFR   IFR Intensif   IFR Très Intensif
Visi : 
Plafond : 
>= 8 km
>= 3000ft
5 à 8 km
1000 à 3000 ft
1500m à 5 km
500 à 1000 ft
800 à 1500m
200 à 500 ft
< 800m
< 200 ft
Symboles :   Orages  Brouillard  Fortes neiges  Fortes précipitations  Vent > 20 kt
SIGMETs :   Divers  Orages  Givrage  Turbulence  Onde Orograph.  Cendres Volcan.






- Altitude de l'aérodrome : 357 ft
- Code IATA : TUF


LFOT - Tours

DERNIER METAR :
  • 150200Z AUTO 00000KT CAVOK 16/15 Q1016 TEMPO 2500 BR

METARs EXPIRÉS :
  • 150130Z AUTO 35001KT CAVOK 16/15 Q1016 TEMPO 2500 BR
  • 150100Z AUTO 14002KT CAVOK 16/15 Q1016 NOSIG
  • 150030Z AUTO 06005KT CAVOK 16/15 Q1016 NOSIG
  • 150000Z AUTO 00000KT CAVOK 17/16 Q1016 NOSIG
  • 142330Z AUTO 00000KT CAVOK 17/15 Q1016 NOSIG

TAF TAF LFOT
Valide du 15 à 00h jusqu'au 16 à 00h UTC


142300Z 1500/1524 01005KT CAVOK
BECMG 1500/1503 6000 NSC
TEMPO 1503/1507 2500 BR
PROB30
TEMPO 1503/1506 MIFG
BECMG 1507/1509 08006KT CAVOK



MET'MAP, la Météo Aéronautique d'un coup d'oeil ! - Copyright ORBIFLY Décembre 2007 - Disclaimer

ORBIFLY MET'MAP TEAM :

Programmation & Développement : Alexandra Zaïnal
Sur une idée originale de : Baudouin d'Aumeries
Assistance à la programmation : Marc-Olivier Méhu
Soutien technique & logistique : Manuel Goepfert

Contact : metmap@orbifly.com




SOURCES & CREDITS :

   NOAA